Time;durP1;ratioP1;P1;durP2;ratioP2;P2;SDS_P1;SDS_P2;PMS_P1;PMS_P2;Temp;Humidity;BMP_temperature;BMP_pressure;BME280_temperature;BME280_humidity;BME280_pressure;Samples;Min_cycle;Max_cycle;Signal;HPM_P1;HPM_P2
2023/09/27 00:00:33;;;;;;;20.45;18.42;;;15.20;99.90;;;;;;5095012;28;20039;-55
2023/09/27 00:02:58;;;;;;;20.42;18.25;;;15.20;99.90;;;;;;5093235;28;20040;-54
2023/09/27 00:05:25;;;;;;;19.52;17.35;;;15.20;99.90;;;;;;5094669;28;20036;-54
2023/09/27 00:07:53;;;;;;;20.70;18.40;;;15.10;99.90;;;;;;5093089;28;20039;-53
2023/09/27 00:10:19;;;;;;;20.15;18.05;;;15.10;99.90;;;;;;5094522;28;20040;-54
2023/09/27 00:12:45;;;;;;;19.52;17.45;;;15.10;99.90;;;;;;5094249;28;20386;-55
2023/09/27 00:15:12;;;;;;;22.55;18.83;;;15.10;99.90;;;;;;5082876;28;20127;-53
2023/09/27 00:17:39;;;;;;;20.67;18.48;;;15.10;99.90;;;;;;5094028;28;20035;-53
2023/09/27 00:20:06;;;;;;;21.83;19.50;;;15.10;99.90;;;;;;5082890;28;20032;-54
2023/09/27 00:22:32;;;;;;;20.90;18.77;;;15.10;99.90;;;;;;5093774;28;20060;-53
2023/09/27 00:24:59;;;;;;;23.27;19.25;;;15.10;99.90;;;;;;5086561;28;20115;-54
2023/09/27 00:27:26;;;;;;;22.05;18.00;;;15.10;99.90;;;;;;5073817;28;20074;-53
2023/09/27 00:29:52;;;;;;;23.33;19.30;;;15.10;99.90;;;;;;5073645;28;20071;-54
2023/09/27 00:32:17;;;;;;;28.80;20.02;;;15.10;99.90;;;;;;5073824;28;20037;-53
2023/09/27 00:34:43;;;;;;;20.10;17.95;;;15.10;99.90;;;;;;5073778;28;20470;-55
2023/09/27 00:37:09;;;;;;;20.38;18.20;;;15.10;99.90;;;;;;5073640;28;20040;-55
2023/09/27 00:39:36;;;;;;;22.02;19.23;;;15.00;99.90;;;;;;5073463;28;20033;-55
2023/09/27 00:42:01;;;;;;;19.30;17.40;;;15.00;99.90;;;;;;5073654;28;20052;-53
2023/09/27 00:44:27;;;;;;;20.55;18.38;;;15.00;99.90;;;;;;5073293;28;20040;-56
2023/09/27 00:46:53;;;;;;;23.45;19.95;;;15.00;99.90;;;;;;5079095;28;20047;-53
2023/09/27 00:49:18;;;;;;;22.13;19.83;;;14.90;99.90;;;;;;5091508;28;20039;-53
2023/09/27 00:51:44;;;;;;;21.77;18.88;;;14.90;99.90;;;;;;5093563;28;20047;-55
2023/09/27 00:54:11;;;;;;;22.27;19.00;;;14.90;99.90;;;;;;5092023;28;20051;-54
2023/09/27 00:56:37;;;;;;;27.35;19.02;;;14.90;99.90;;;;;;5093485;28;20035;-55
2023/09/27 00:59:04;;;;;;;19.40;17.45;;;14.90;99.90;;;;;;5093399;28;20545;-54
2023/09/27 01:01:31;;;;;;;21.05;18.83;;;14.90;99.90;;;;;;5093667;28;20363;-54
2023/09/27 01:03:58;;;;;;;21.02;17.80;;;14.90;99.90;;;;;;5093202;28;20558;-54
2023/09/27 01:06:23;;;;;;;20.40;18.13;;;14.90;99.90;;;;;;5093354;28;20031;-55
2023/09/27 01:08:49;;;;;;;19.80;17.45;;;14.90;99.90;;;;;;5093220;28;20484;-53
2023/09/27 01:11:16;;;;;;;20.20;17.25;;;14.80;99.90;;;;;;5093332;28;20047;-55
2023/09/27 01:13:42;;;;;;;20.50;18.20;;;14.90;99.90;;;;;;5086994;28;20109;-54
2023/09/27 01:16:07;;;;;;;21.27;18.52;;;14.90;99.90;;;;;;5093548;28;20432;-55
2023/09/27 01:18:33;;;;;;;23.23;18.88;;;14.90;99.90;;;;;;5087388;28;20072;-53
2023/09/27 01:21:00;;;;;;;27.30;19.35;;;14.90;99.90;;;;;;5093006;28;20060;-55
2023/09/27 01:23:25;;;;;;;23.13;18.75;;;14.80;99.90;;;;;;5093085;28;20036;-55
2023/09/27 01:25:58;;;;;;;21.08;18.80;;;14.80;99.90;;;;;;5077626;28;20056;-55
2023/09/27 01:28:24;;;;;;;22.15;19.25;;;14.80;99.90;;;;;;5072931;28;20433;-53
2023/09/27 01:30:49;;;;;;;21.13;18.52;;;14.80;99.90;;;;;;5072786;28;20467;-54
2023/09/27 01:33:15;;;;;;;25.02;18.65;;;14.80;99.90;;;;;;5072633;28;20059;-55
2023/09/27 01:35:43;;;;;;;34.75;19.83;;;14.70;99.90;;;;;;5072091;28;20159;-54
2023/09/27 01:38:10;;;;;;;22.17;19.55;;;14.70;99.90;;;;;;5072367;28;20035;-54
2023/09/27 01:40:44;;;;;;;21.83;19.42;;;14.60;99.90;;;;;;5072215;28;20044;-55
2023/09/27 01:43:10;;;;;;;22.42;19.52;;;14.60;99.90;;;;;;5072279;28;20036;-54
2023/09/27 01:45:36;;;;;;;20.58;18.33;;;14.50;99.90;;;;;;5072483;28;20093;-54
2023/09/27 01:48:03;;;;;;;20.92;18.77;;;14.50;99.90;;;;;;5072051;28;20468;-54
2023/09/27 01:50:32;;;;;;;22.15;18.85;;;14.50;99.90;;;;;;5072134;28;20483;-54
2023/09/27 01:52:58;;;;;;;20.65;18.45;;;14.40;99.90;;;;;;5072139;28;20051;-54
2023/09/27 01:55:24;;;;;;;21.65;18.27;;;14.50;99.90;;;;;;5071530;28;20028;-53
2023/09/27 01:57:50;;;;;;;22.58;20.17;;;14.50;99.90;;;;;;5072312;28;20125;-55
2023/09/27 02:00:17;;;;;;;21.20;19.10;;;14.40;99.90;;;;;;5073725;28;20125;-54
2023/09/27 02:02:44;;;;;;;27.10;19.42;;;14.40;99.90;;;;;;5091142;28;20040;-53
2023/09/27 02:05:10;;;;;;;22.40;20.10;;;14.40;99.90;;;;;;5092284;28;20530;-54
2023/09/27 02:07:40;;;;;;;23.00;20.58;;;14.30;99.90;;;;;;5092413;28;20212;-52
2023/09/27 02:10:10;;;;;;;22.27;20.08;;;14.30;99.90;;;;;;5091998;28;20040;-55
2023/09/27 02:12:37;;;;;;;21.75;19.08;;;14.30;99.90;;;;;;5091938;28;20032;-53
2023/09/27 02:15:04;;;;;;;23.90;19.13;;;14.30;99.90;;;;;;5076789;28;20043;-55
2023/09/27 02:17:30;;;;;;;25.00;20.45;;;14.20;99.90;;;;;;5092160;28;20038;-51
2023/09/27 02:19:56;;;;;;;24.40;19.77;;;14.30;99.90;;;;;;5076106;28;20417;-56
2023/09/27 02:22:22;;;;;;;24.00;19.90;;;14.20;99.90;;;;;;5091725;28;20059;-53
2023/09/27 02:24:48;;;;;;;21.02;18.73;;;14.20;99.90;;;;;;5085730;28;20409;-55
2023/09/27 02:27:14;;;;;;;20.77;18.58;;;14.20;99.90;;;;;;5071858;28;20047;-56
2023/09/27 02:29:43;;;;;;;23.85;20.52;;;14.20;99.90;;;;;;5071750;28;20450;-56
2023/09/27 02:32:09;;;;;;;;;;;14.20;99.90;;;;;;5072131;28;20115;-53
2023/09/27 02:34:35;;;;;;;20.42;18.33;;;14.20;99.90;;;;;;5071544;28;20410;-54
2023/09/27 02:37:02;;;;;;;22.98;20.58;;;14.20;99.90;;;;;;5070380;28;20059;-54
2023/09/27 02:39:31;;;;;;;21.38;19.17;;;14.20;99.90;;;;;;5071625;28;20396;-51
2023/09/27 02:41:57;;;;;;;19.80;17.85;;;14.20;99.90;;;;;;5071771;28;20098;-54
2023/09/27 02:44:23;;;;;;;24.73;19.33;;;14.10;99.90;;;;;;5071499;28;20458;-53
2023/09/27 02:46:51;;;;;;;21.38;19.17;;;14.10;99.90;;;;;;5070428;28;20075;-56
2023/09/27 02:49:19;;;;;;;22.55;20.15;;;14.10;99.90;;;;;;5072722;28;20045;-55
2023/09/27 02:51:47;;;;;;;23.45;20.30;;;14.10;99.90;;;;;;5091441;28;20470;-55
2023/09/27 02:54:14;;;;;;;25.65;21.25;;;14.10;99.90;;;;;;5082853;28;20057;-54
2023/09/27 02:56:40;;;;;;;22.35;19.63;;;14.10;99.90;;;;;;5091644;28;20035;-54
2023/09/27 02:59:06;;;;;;;22.98;20.52;;;14.10;99.90;;;;;;5091482;28;20032;-55
2023/09/27 03:01:32;;;;;;;23.08;20.23;;;14.10;99.90;;;;;;5091369;28;20036;-54
2023/09/27 03:03:58;;;;;;;26.17;19.80;;;14.00;99.90;;;;;;5091499;28;20486;-52
2023/09/27 03:06:24;;;;;;;25.38;20.63;;;14.00;99.90;;;;;;5092026;28;20036;-53
2023/09/27 03:08:50;;;;;;;26.45;20.80;;;14.00;99.90;;;;;;5091534;28;20040;-54
2023/09/27 03:11:17;;;;;;;23.48;21.02;;;13.90;99.90;;;;;;5091318;28;20068;-53
2023/09/27 03:13:43;;;;;;;23.40;20.23;;;13.90;99.90;;;;;;5083356;28;20040;-55
2023/09/27 03:16:10;;;;;;;23.77;21.25;;;13.90;99.90;;;;;;5090470;28;20032;-55
2023/09/27 03:18:36;;;;;;;23.10;20.27;;;13.90;99.90;;;;;;5091235;28;20371;-54
2023/09/27 03:21:02;;;;;;;27.90;21.30;;;13.90;99.90;;;;;;5091183;28;20394;-53
2023/09/27 03:23:29;;;;;;;23.58;21.08;;;13.90;99.90;;;;;;5091472;28;20039;-55
2023/09/27 03:25:58;;;;;;;26.30;20.85;;;13.90;99.90;;;;;;5091265;28;20047;-53
2023/09/27 03:28:23;;;;;;;;;;;14.00;99.90;;;;;;5091523;28;20032;-54
2023/09/27 03:30:49;;;;;;;24.95;22.30;;;13.90;99.90;;;;;;5091258;28;19927;-54
2023/09/27 03:33:15;;;;;;;24.33;19.88;;;13.80;99.90;;;;;;5091042;28;20036;-55
2023/09/27 03:35:41;;;;;;;25.63;22.15;;;13.80;99.90;;;;;;5091449;28;20036;-53
2023/09/27 03:38:07;;;;;;;24.25;21.65;;;13.80;99.90;;;;;;5091210;28;20168;-52
2023/09/27 03:40:33;;;;;;;28.25;22.42;;;13.80;99.90;;;;;;5091296;28;20549;-55
2023/09/27 03:42:58;;;;;;;26.23;22.38;;;13.80;99.90;;;;;;5089492;28;20044;-53
2023/09/27 03:45:25;;;;;;;23.85;21.42;;;13.80;99.90;;;;;;5091155;28;20390;-52
2023/09/27 03:47:50;;;;;;;24.60;21.60;;;13.80;99.90;;;;;;5089618;28;20043;-54
2023/09/27 03:50:16;;;;;;;25.10;21.60;;;13.90;99.90;;;;;;5090621;28;20032;-54
2023/09/27 03:52:42;;;;;;;25.65;21.10;;;13.80;99.90;;;;;;5091162;28;20102;-54
2023/09/27 03:55:08;;;;;;;25.83;23.08;;;13.80;99.90;;;;;;5090985;28;20039;-53
2023/09/27 03:57:34;;;;;;;26.15;23.45;;;13.90;99.90;;;;;;5091813;28;20063;-54
2023/09/27 04:00:00;;;;;;;25.50;22.50;;;13.80;99.90;;;;;;5088447;28;20149;-53
2023/09/27 04:02:26;;;;;;;25.02;21.88;;;13.80;99.90;;;;;;5094423;28;20046;-52
2023/09/27 04:04:52;;;;;;;25.13;21.92;;;13.80;99.90;;;;;;5094848;28;20079;-54
2023/09/27 04:07:18;;;;;;;30.73;23.10;;;13.80;99.90;;;;;;5094617;28;20143;-55
2023/09/27 04:09:47;;;;;;;24.75;22.05;;;13.80;99.90;;;;;;5094767;28;20074;-55
2023/09/27 04:12:13;;;;;;;27.15;23.05;;;13.80;99.90;;;;;;5093583;28;20040;-53
2023/09/27 04:14:39;;;;;;;28.20;23.98;;;13.80;99.90;;;;;;5087485;28;20456;-55
2023/09/27 04:17:04;;;;;;;26.75;23.75;;;13.80;99.90;;;;;;5094259;28;20032;-54
2023/09/27 04:19:31;;;;;;;24.05;21.15;;;13.70;99.90;;;;;;5087068;28;20066;-53
2023/09/27 04:21:57;;;;;;;28.45;22.25;;;13.70;99.90;;;;;;5092800;28;20063;-54
2023/09/27 04:24:23;;;;;;;25.88;22.83;;;13.70;99.90;;;;;;5094242;28;20033;-53
2023/09/27 04:26:49;;;;;;;26.00;23.20;;;13.70;99.90;;;;;;5094255;28;20054;-54
2023/09/27 04:29:15;;;;;;;26.10;23.40;;;13.70;99.90;;;;;;5093919;28;20031;-55
2023/09/27 04:31:40;;;;;;;23.67;21.20;;;13.60;99.90;;;;;;5093962;28;20040;-53
2023/09/27 04:34:06;;;;;;;27.88;22.85;;;13.60;99.90;;;;;;5093774;28;20508;-54
2023/09/27 04:36:32;;;;;;;25.85;23.00;;;13.70;99.90;;;;;;5094087;28;20043;-54
2023/09/27 04:38:57;;;;;;;25.05;22.38;;;13.70;99.90;;;;;;5093214;28;20433;-52
2023/09/27 04:41:23;;;;;;;25.15;22.50;;;13.60;99.90;;;;;;5086615;28;20106;-55
2023/09/27 04:43:49;;;;;;;29.48;23.63;;;13.60;99.90;;;;;;5084970;28;20367;-54
2023/09/27 04:46:15;;;;;;;28.10;22.48;;;13.60;99.90;;;;;;5091341;28;20063;-54
2023/09/27 04:48:40;;;;;;;24.33;21.45;;;13.60;99.90;;;;;;5081920;28;20052;-53
2023/09/27 04:51:06;;;;;;;25.45;21.75;;;13.60;99.90;;;;;;5093376;28;20051;-52
2023/09/27 04:53:35;;;;;;;24.63;21.83;;;13.60;99.90;;;;;;5093746;28;20047;-54
2023/09/27 04:56:02;;;;;;;24.42;21.58;;;13.50;99.90;;;;;;5093566;28;20040;-55
2023/09/27 04:58:28;;;;;;;27.25;24.10;;;13.50;99.90;;;;;;5093177;28;20390;-54
2023/09/27 05:00:53;;;;;;;23.90;21.50;;;13.50;99.90;;;;;;5092264;28;20055;-54
2023/09/27 05:03:19;;;;;;;28.40;24.13;;;13.50;99.90;;;;;;5093731;28;20508;-55
2023/09/27 05:05:45;;;;;;;28.10;22.83;;;13.50;99.90;;;;;;5093619;28;20039;-52
2023/09/27 05:08:10;;;;;;;30.08;24.30;;;13.50;99.90;;;;;;5093496;28;20048;-54
2023/09/27 05:10:36;;;;;;;25.45;22.77;;;13.50;99.90;;;;;;5090764;28;20055;-53
2023/09/27 05:13:03;;;;;;;26.45;22.40;;;13.50;99.90;;;;;;5089401;28;20075;-55
2023/09/27 05:15:29;;;;;;;25.55;22.33;;;13.50;99.90;;;;;;5089063;28;20389;-53
2023/09/27 05:17:55;;;;;;;27.02;23.35;;;13.50;99.90;;;;;;5090608;28;20066;-53
2023/09/27 05:20:21;;;;;;;24.40;21.70;;;13.40;99.90;;;;;;5087030;28;20391;-53
2023/09/27 05:22:46;;;;;;;24.95;22.35;;;13.40;99.90;;;;;;5091638;28;20052;-54
2023/09/27 05:25:13;;;;;;;26.92;22.17;;;13.40;99.90;;;;;;5093100;28;20127;-55
2023/09/27 05:27:39;;;;;;;25.35;22.63;;;13.40;99.90;;;;;;5092791;28;20032;-52
2023/09/27 05:30:07;;;;;;;27.85;22.02;;;13.40;99.90;;;;;;5091542;28;20048;-54
2023/09/27 05:32:33;;;;;;;26.45;23.70;;;13.40;99.90;;;;;;5092846;28;20074;-53
2023/09/27 05:34:59;;;;;;;26.15;23.30;;;13.40;99.90;;;;;;5092898;28;20068;-55
2023/09/27 05:37:24;;;;;;;24.35;21.80;;;13.40;99.90;;;;;;5092661;28;20043;-53
2023/09/27 05:39:50;;;;;;;23.25;20.83;;;13.40;99.90;;;;;;5092689;28;20078;-53
2023/09/27 05:42:16;;;;;;;29.05;23.20;;;13.30;99.90;;;;;;5092549;28;20075;-54
2023/09/27 05:44:42;;;;;;;27.60;23.60;;;13.40;99.90;;;;;;5080652;28;20077;-53
2023/09/27 05:47:07;;;;;;;28.02;24.08;;;13.40;99.90;;;;;;5091555;28;20459;-53
2023/09/27 05:49:34;;;;;;;26.30;23.48;;;13.50;99.90;;;;;;5080019;28;20044;-54
2023/09/27 05:52:00;;;;;;;25.50;22.90;;;13.40;99.90;;;;;;5092395;28;20036;-53
2023/09/27 05:54:25;;;;;;;29.77;25.48;;;13.50;99.90;;;;;;5092241;28;20040;-55
2023/09/27 05:56:54;;;;;;;27.27;24.13;;;13.50;99.90;;;;;;5092728;28;20039;-52
2023/09/27 05:59:19;;;;;;;30.90;25.23;;;13.60;99.90;;;;;;5092307;28;20119;-53
2023/09/27 06:01:47;;;;;;;32.90;27.77;;;13.60;99.90;;;;;;5089951;28;20143;-54
2023/09/27 06:04:13;;;;;;;30.77;26.02;;;13.60;99.90;;;;;;5092301;28;20501;-55
2023/09/27 06:06:39;;;;;;;31.25;26.58;;;13.70;99.90;;;;;;5092622;28;20032;-54
2023/09/27 06:09:09;;;;;;;29.63;26.52;;;13.70;99.90;;;;;;5092140;28;20036;-52
2023/09/27 06:11:35;;;;;;;27.23;24.33;;;13.80;99.90;;;;;;5092535;28;20040;-55
2023/09/27 06:14:00;;;;;;;31.92;27.08;;;13.80;99.90;;;;;;5085102;28;20050;-54
2023/09/27 06:16:26;;;;;;;30.35;25.67;;;13.80;99.90;;;;;;5092410;28;20040;-54
2023/09/27 06:18:52;;;;;;;30.60;27.55;;;13.90;99.90;;;;;;5091932;28;20036;-55
2023/09/27 06:21:17;;;;;;;30.95;26.20;;;13.90;99.90;;;;;;5073504;28;20149;-54
2023/09/27 06:23:43;;;;;;;30.80;26.65;;;13.90;99.90;;;;;;5091933;28;20035;-54
2023/09/27 06:26:09;;;;;;;30.20;27.10;;;13.90;99.90;;;;;;5091745;28;20059;-53
2023/09/27 06:28:37;;;;;;;32.97;28.23;;;13.90;99.90;;;;;;5090682;28;20124;-54
2023/09/27 06:31:06;;;;;;;31.13;26.45;;;14.00;99.90;;;;;;5091797;28;20040;-56
2023/09/27 06:33:39;;;;;;;31.23;27.77;;;14.00;99.90;;;;;;5091775;28;20084;-55
2023/09/27 06:36:08;;;;;;;32.72;27.95;;;14.00;99.90;;;;;;5091597;28;20036;-54
2023/09/27 06:38:34;;;;;;;33.70;28.58;;;14.00;99.90;;;;;;5091828;28;20040;-54
2023/09/27 06:41:00;;;;;;;29.55;26.50;;;14.10;99.90;;;;;;5091442;28;20036;-55
2023/09/27 06:43:28;;;;;;;34.47;30.05;;;14.10;99.90;;;;;;5091874;28;20086;-54
2023/09/27 06:45:54;;;;;;;33.75;27.90;;;14.10;99.90;;;;;;5091555;28;20050;-55
2023/09/27 06:48:20;;;;;;;32.45;26.58;;;14.20;99.90;;;;;;5091632;28;20041;-55
2023/09/27 06:50:47;;;;;;;31.05;27.13;;;14.20;99.90;;;;;;5091703;28;20044;-54
2023/09/27 06:53:13;;;;;;;30.55;27.40;;;14.30;99.90;;;;;;5091535;28;20040;-54
2023/09/27 06:55:39;;;;;;;34.95;28.40;;;14.30;99.90;;;;;;5091801;28;20103;-56
2023/09/27 06:58:05;;;;;;;34.80;29.60;;;14.40;99.90;;;;;;5091900;28;20386;-55
2023/09/27 07:00:31;;;;;;;32.60;29.13;;;14.50;99.90;;;;;;5091466;28;20032;-54
2023/09/27 07:02:56;;;;;;;32.88;28.00;;;14.60;99.90;;;;;;5091409;28;20036;-54
2023/09/27 07:05:23;;;;;;;32.83;28.27;;;14.80;99.90;;;;;;5091358;28;20139;-53
2023/09/27 07:07:49;;;;;;;32.03;28.55;;;14.90;99.90;;;;;;5091248;28;20040;-55
2023/09/27 07:10:15;;;;;;;30.50;27.20;;;15.10;99.90;;;;;;5091393;28;20078;-54
2023/09/27 07:12:41;;;;;;;31.83;28.02;;;15.20;99.90;;;;;;5091430;28;20072;-55
2023/09/27 07:15:10;;;;;;;31.95;26.10;;;15.20;99.90;;;;;;5090098;28;20504;-54
2023/09/27 07:17:38;;;;;;;30.05;26.92;;;15.40;99.90;;;;;;5086892;28;20087;-54
2023/09/27 07:22:54;;;;;;;28.65;25.77;;;15.60;99.90;;;;;;5091622;28;20052;-56
2023/09/27 07:25:21;;;;;;;30.75;25.92;;;15.80;99.90;;;;;;5091267;28;20036;-56
2023/09/27 07:27:48;;;;;;;27.85;24.88;;;16.00;99.90;;;;;;5091392;28;20051;-57
2023/09/27 07:30:18;;;;;;;26.75;24.05;;;16.30;99.90;;;;;;5090987;28;20371;-55
2023/09/27 07:32:45;;;;;;;28.17;25.13;;;16.40;99.90;;;;;;5092125;28;20024;-55
2023/09/27 07:35:13;;;;;;;28.35;23.48;;;16.50;99.90;;;;;;5095609;28;20108;-52
2023/09/27 07:37:39;;;;;;;;;;;16.60;99.90;;;;;;5095673;28;20048;-53
2023/09/27 07:40:09;;;;;;;27.38;24.50;;;16.50;99.90;;;;;;5095514;28;19920;-53
2023/09/27 07:42:42;;;;;;;27.70;24.88;;;16.40;99.90;;;;;;5094866;28;20097;-55
2023/09/27 07:45:44;;;;;;;27.42;24.63;;;16.40;99.90;;;;;;5087504;28;20044;-55
2023/09/27 07:48:02;;;;;;;29.83;24.98;;;16.40;99.90;;;;;;5091833;28;20079;-56
2023/09/27 07:50:31;;;;;;;29.55;25.58;;;16.60;99.90;;;;;;5086453;28;20461;-55
2023/09/27 07:52:58;;;;;;;28.25;24.52;;;16.60;99.90;;;;;;5093333;28;20478;-54
2023/09/27 07:55:24;;;;;;;28.35;25.52;;;16.70;99.90;;;;;;5094857;28;20111;-54
2023/09/27 07:57:52;;;;;;;27.58;24.65;;;16.80;99.90;;;;;;5094450;28;20079;-53
2023/09/27 08:00:19;;;;;;;27.05;23.75;;;17.10;99.90;;;;;;5094742;28;20432;-54
2023/09/27 08:02:50;;;;;;;27.42;23.98;;;17.30;99.90;;;;;;5095024;28;20187;-53
2023/09/27 08:05:16;;;;;;;28.50;25.00;;;17.50;99.90;;;;;;5094483;28;20036;-53
2023/09/27 08:07:44;;;;;;;24.98;22.38;;;17.60;99.90;;;;;;5094645;28;20044;-55
2023/09/27 08:10:10;;;;;;;24.95;22.45;;;17.90;99.90;;;;;;5094163;28;20051;-54
2023/09/27 08:12:38;;;;;;;23.73;21.20;;;18.20;99.90;;;;;;5076496;28;20044;-54
2023/09/27 08:15:06;;;;;;;24.45;21.92;;;18.40;99.90;;;;;;5087551;28;20040;-55
2023/09/27 08:17:32;;;;;;;24.05;21.52;;;18.60;99.90;;;;;;5094348;28;20068;-54
2023/09/27 08:19:58;;;;;;;23.38;20.13;;;18.90;99.90;;;;;;5094126;28;20517;-54
2023/09/27 08:22:24;;;;;;;22.02;19.70;;;19.30;99.90;;;;;;5094073;28;20087;-54
2023/09/27 08:24:50;;;;;;;23.77;21.13;;;19.50;99.90;;;;;;5093996;28;20082;-56
2023/09/27 08:27:17;;;;;;;27.10;20.50;;;19.80;99.90;;;;;;5094340;28;20044;-54
2023/09/27 08:29:43;;;;;;;22.15;19.10;;;19.90;99.90;;;;;;5094075;28;20101;-55
2023/09/27 08:32:09;;;;;;;29.60;21.98;;;20.00;99.90;;;;;;5094098;28;20035;-53
2023/09/27 08:34:35;;;;;;;24.30;20.92;;;20.00;99.90;;;;;;5093947;28;20567;-55
2023/09/27 08:37:01;;;;;;;22.05;19.75;;;20.00;99.90;;;;;;5093912;28;20050;-52
2023/09/27 08:39:26;;;;;;;22.02;19.38;;;20.10;99.90;;;;;;5093780;28;20494;-55
2023/09/27 08:41:55;;;;;;;22.25;19.85;;;20.10;99.90;;;;;;5093901;28;20039;-53
2023/09/27 08:44:23;;;;;;;20.38;18.17;;;20.40;99.90;;;;;;5093934;28;20068;-53
2023/09/27 08:46:50;;;;;;;22.58;19.65;;;20.60;99.90;;;;;;5093648;28;20036;-54
2023/09/27 08:49:18;;;;;;;23.65;18.15;;;20.70;99.90;;;;;;5093739;28;20035;-55
2023/09/27 08:51:46;;;;;;;21.00;17.17;;;20.80;99.90;;;;;;5093489;28;20051;-54
2023/09/27 08:54:16;;;;;;;19.65;17.15;;;20.90;99.90;;;;;;5093523;28;20040;-54
2023/09/27 08:56:49;;;;;;;20.38;18.27;;;21.20;99.90;;;;;;5093524;28;20139;-55
2023/09/27 08:59:15;;;;;;;20.88;17.30;;;21.40;99.90;;;;;;5093217;28;20089;-54
2023/09/27 09:01:44;;;;;;;18.58;16.77;;;21.60;99.90;;;;;;5093228;28;20109;-54
2023/09/27 09:04:16;;;;;;;19.63;17.45;;;21.80;99.90;;;;;;5093328;28;20125;-54
2023/09/27 09:06:42;;;;;;;24.25;18.10;;;21.80;99.90;;;;;;5093206;28;20051;-54
2023/09/27 09:09:11;;;;;;;19.02;16.98;;;21.80;99.90;;;;;;5093083;28;20042;-54
2023/09/27 09:11:47;;;;;;;20.60;17.58;;;21.80;99.90;;;;;;5093340;28;20044;-54
2023/09/27 09:14:17;;;;;;;19.90;16.23;;;21.70;99.90;;;;;;5093154;28;20024;-53
2023/09/27 09:16:51;;;;;;;17.73;15.13;;;21.80;99.90;;;;;;5092148;28;20048;-56
2023/09/27 09:19:24;;;;;;;20.17;16.65;;;21.80;99.90;;;;;;5092805;28;20545;-54
2023/09/27 09:22:03;;;;;;;21.05;16.67;;;21.80;99.90;;;;;;5093078;28;20503;-52
2023/09/27 09:24:29;;;;;;;;;;;21.80;99.90;;;;;;5093346;28;20117;-55
2023/09/27 09:27:09;;;;;;;17.48;15.68;;;21.80;99.90;;;;;;5093119;28;19965;-54
2023/09/27 09:29:52;;;;;;;20.38;16.52;;;21.80;99.90;;;;;;5091384;28;20431;-55
2023/09/27 09:32:26;;;;;;;19.17;14.73;;;21.70;99.90;;;;;;5091849;28;20459;-56
2023/09/27 09:34:53;;;;;;;19.08;14.23;;;21.80;99.90;;;;;;5091620;28;20047;-55
2023/09/27 09:37:19;;;;;;;23.17;16.38;;;21.70;99.90;;;;;;5092835;28;20036;-54
2023/09/27 09:39:47;;;;;;;19.73;16.42;;;21.70;99.90;;;;;;5092587;28;20546;-54
2023/09/27 09:42:32;;;;;;;20.23;15.18;;;21.60;99.90;;;;;;5092806;28;20093;-53
2023/09/27 09:45:10;;;;;;;20.40;14.32;;;21.50;99.90;;;;;;5092593;28;20111;-53
2023/09/27 09:47:37;;;;;;;22.35;15.20;;;21.30;99.90;;;;;;5092649;28;20097;-55
2023/09/27 09:50:16;;;;;;;16.90;13.30;;;21.30;99.90;;;;;;5091333;28;20497;-54
2023/09/27 09:52:50;;;;;;;18.10;14.60;;;21.40;99.90;;;;;;5092732;28;20274;-54
2023/09/27 09:55:19;;;;;;;18.35;13.50;;;21.50;99.90;;;;;;5091621;28;20550;-55
2023/09/27 09:57:46;;;;;;;16.17;10.23;;;21.40;99.90;;;;;;5092676;28;20473;-53
2023/09/27 10:00:17;;;;;;;14.02;10.43;;;21.40;99.90;;;;;;5092358;28;20048;-54
2023/09/27 10:02:51;;;;;;;14.63;11.60;;;21.30;99.90;;;;;;5092108;28;20048;-54
2023/09/27 10:05:21;;;;;;;18.05;12.00;;;21.20;99.90;;;;;;5090862;28;20051;-55
2023/09/27 10:07:48;;;;;;;16.35;11.30;;;21.20;99.90;;;;;;5092239;28;20067;-54
2023/09/27 10:10:17;;;;;;;16.90;11.13;;;21.20;99.90;;;;;;5092406;28;20132;-55
2023/09/27 10:12:46;;;;;;;18.73;9.80;;;21.20;99.90;;;;;;5092344;28;20040;-52
2023/09/27 10:15:14;;;;;;;17.65;10.50;;;21.20;99.90;;;;;;5080093;28;20517;-54
2023/09/27 10:17:40;;;;;;;16.05;9.07;;;21.20;99.90;;;;;;5063945;28;20513;-55
2023/09/27 10:20:22;;;;;;;15.85;8.18;;;21.30;99.90;;;;;;5092129;28;20036;-53
2023/09/27 10:22:49;;;;;;;11.38;7.45;;;21.30;99.90;;;;;;5090543;28;20056;-55
2023/09/27 10:25:23;;;;;;;11.80;6.35;;;21.30;99.90;;;;;;5091997;28;20224;-54
2023/09/27 10:28:01;;;;;;;11.30;6.70;;;21.30;99.90;;;;;;5090267;28;20071;-54
2023/09/27 10:30:48;;;;;;;11.38;7.38;;;21.40;99.90;;;;;;5090324;28;20040;-53
2023/09/27 10:33:20;;;;;;;11.20;6.40;;;21.30;99.90;;;;;;5091648;28;20089;-54
2023/09/27 10:36:26;;;;;;;11.82;6.72;;;21.20;99.90;;;;;;5091789;28;20040;-51
2023/09/27 10:38:52;;;;;;;10.00;5.47;;;21.20;99.90;;;;;;5068742;28;20132;-56
2023/09/27 10:41:32;;;;;;;10.90;5.68;;;21.10;99.90;;;;;;5069230;28;20518;-55
2023/09/27 10:43:58;;;;;;;10.32;5.63;;;21.10;99.90;;;;;;5064329;28;20045;-55
2023/09/27 10:46:24;;;;;;;14.23;5.63;;;21.10;99.90;;;;;;5069290;28;20079;-54
2023/09/27 10:49:00;;;;;;;9.02;5.03;;;21.00;99.90;;;;;;5063841;28;20068;-53
2023/09/27 10:51:26;;;;;;;8.93;5.70;;;21.10;99.90;;;;;;5069095;28;20037;-55
2023/09/27 10:53:53;;;;;;;12.52;5.00;;;21.00;99.90;;;;;;5069121;28;20041;-54
2023/09/27 10:56:19;;;;;;;9.48;4.97;;;21.00;99.90;;;;;;5069259;28;20086;-55
2023/09/27 10:58:46;;;;;;;9.73;4.55;;;21.00;99.90;;;;;;5069033;28;20063;-55
2023/09/27 11:01:19;;;;;;;8.60;4.15;;;20.90;99.90;;;;;;5068958;28;20044;-55
2023/09/27 11:03:45;;;;;;;13.80;4.22;;;20.90;99.90;;;;;;5068881;28;20083;-55
2023/09/27 11:06:12;;;;;;;11.48;3.58;;;20.90;99.90;;;;;;5069131;28;20076;-54
2023/09/27 11:08:40;;;;;;;8.50;3.95;;;20.90;99.90;;;;;;5071428;28;20406;-53
2023/09/27 11:11:11;;;;;;;7.95;3.70;;;20.90;99.90;;;;;;5072950;28;20044;-55
2023/09/27 11:13:43;;;;;;;7.28;3.53;;;20.90;99.90;;;;;;5055678;28;20041;-54
2023/09/27 11:16:11;;;;;;;7.85;3.50;;;20.90;99.90;;;;;;5089255;28;20431;-55
2023/09/27 11:18:46;;;;;;;9.18;4.40;;;20.90;99.90;;;;;;5095451;28;20429;-55
2023/09/27 11:21:13;;;;;;;9.18;3.47;;;20.90;99.90;;;;;;5095304;28;20056;-56
2023/09/27 11:23:55;;;;;;;8.27;3.33;;;20.90;99.90;;;;;;5095208;28;20122;-55
2023/09/27 11:26:22;;;;;;;9.23;3.67;;;20.90;99.90;;;;;;5095337;28;20043;-52
2023/09/27 11:29:05;;;;;;;5.50;3.05;;;20.90;99.90;;;;;;5095425;28;20367;-53
2023/09/27 11:31:35;;;;;;;6.95;3.30;;;20.90;99.90;;;;;;5095248;28;20072;-53
2023/09/27 11:34:17;;;;;;;6.43;3.47;;;20.90;99.90;;;;;;5067570;28;20031;-54
2023/09/27 11:36:44;;;;;;;7.18;3.05;;;20.90;99.90;;;;;;5095159;28;20357;-52
2023/09/27 11:39:10;;;;;;;4.97;3.03;;;20.90;99.90;;;;;;5095539;28;20447;-52
2023/09/27 11:41:36;;;;;;;9.32;3.20;;;20.90;99.90;;;;;;5095351;28;20044;-54
2023/09/27 11:44:17;;;;;;;12.13;3.80;;;20.90;99.90;;;;;;5095449;28;20119;-54
2023/09/27 11:46:44;;;;;;;8.10;3.95;;;20.90;99.90;;;;;;5093626;28;20043;-54
2023/09/27 11:49:10;;;;;;;7.15;3.30;;;20.90;99.90;;;;;;5093480;28;20044;-55
2023/09/27 11:51:36;;;;;;;11.90;3.40;;;20.90;99.90;;;;;;5094849;28;20040;-54
2023/09/27 11:54:05;;;;;;;9.65;3.65;;;20.90;99.90;;;;;;5094974;28;20036;-54
2023/09/27 11:56:33;;;;;;;6.43;3.83;;;21.00;99.90;;;;;;5094736;28;20036;-54
2023/09/27 11:58:59;;;;;;;8.68;4.10;;;21.00;99.90;;;;;;5094567;28;20101;-52
2023/09/27 12:01:25;;;;;;;5.80;3.45;;;21.00;99.90;;;;;;5094369;28;20048;-53
2023/09/27 12:03:51;;;;;;;8.48;3.55;;;21.10;99.90;;;;;;5094392;28;20046;-54
2023/09/27 12:06:17;;;;;;;12.75;3.45;;;21.10;99.90;;;;;;5094514;28;20039;-55
2023/09/27 12:08:43;;;;;;;8.27;3.25;;;21.30;99.90;;;;;;5094219;28;20043;-54
2023/09/27 12:11:08;;;;;;;4.88;2.95;;;21.50;99.90;;;;;;5094332;28;20036;-55
2023/09/27 12:13:34;;;;;;;7.60;2.83;;;21.60;99.90;;;;;;5094168;28;20040;-54
2023/09/27 12:16:00;;;;;;;8.18;3.25;;;21.70;99.90;;;;;;5094370;28;20109;-54
2023/09/27 12:18:25;;;;;;;6.45;3.60;;;21.70;99.90;;;;;;5092844;28;20047;-54
2023/09/27 12:20:51;;;;;;;8.07;4.22;;;21.80;99.90;;;;;;5093827;28;20186;-53
2023/09/27 12:23:17;;;;;;;5.97;3.15;;;21.90;99.90;;;;;;5091864;28;20043;-54
2023/09/27 12:25:43;;;;;;;7.63;3.75;;;22.00;99.90;;;;;;5092993;28;20141;-53
2023/09/27 12:28:11;;;;;;;8.98;4.22;;;22.10;99.90;;;;;;5093075;28;20047;-55
2023/09/27 12:30:37;;;;;;;6.20;4.10;;;22.20;99.90;;;;;;5093172;28;20048;-55
2023/09/27 12:33:03;;;;;;;8.43;4.75;;;22.40;99.90;;;;;;5093068;28;20097;-54
2023/09/27 12:35:29;;;;;;;9.52;3.92;;;22.50;99.90;;;;;;5092973;28;20032;-55